Time;durP1;ratioP1;P1;durP2;ratioP2;P2;SDS_P1;SDS_P2;PMS_P1;PMS_P2;Temp;Humidity;BMP_temperature;BMP_pressure;BME280_temperature;BME280_humidity;BME280_pressure;Samples;Min_cycle;Max_cycle;Signal;HPM_P1;HPM_P2
2021/07/01 00:01:00;;;;;;;12.57;5.97;;;;;;;;;;5058904;28;20484;-73
2021/07/01 00:03:27;;;;;;;11.17;6.23;;;;;;;;;;5057415;28;20464;-73
2021/07/01 00:05:55;;;;;;;11.73;6.13;;;;;;;;;;5056998;28;20468;-73
2021/07/01 00:08:23;;;;;;;10.40;6.30;;;;;;;;;;5057902;28;20495;-74
2021/07/01 00:10:51;;;;;;;8.13;6.07;;;;;;;;;;5057849;28;20519;-73
2021/07/01 00:13:18;;;;;;;12.70;5.93;;;;;;;;;;5057797;28;20503;-73
2021/07/01 00:15:46;;;;;;;12.33;5.10;;;;;;;;;;5058105;28;20731;-73
2021/07/01 00:18:16;;;;;;;11.17;6.60;;;;;;;;;;5057770;28;20870;-73
2021/07/01 00:20:44;;;;;;;10.30;6.30;;;;;;;;;;5057283;28;20872;-73
2021/07/01 00:23:12;;;;;;;11.23;6.83;;;;;;;;;;5057775;28;20461;-73
2021/07/01 00:25:41;;;;;;;8.00;6.43;;;;;;;;;;5057508;28;20515;-73
2021/07/01 00:28:09;;;;;;;7.97;5.17;;;;;;;;;;5057538;28;20465;-73
2021/07/01 00:30:37;;;;;;;8.40;5.57;;;;;;;;;;5057659;28;20519;-72
2021/07/01 00:33:04;;;;;;;7.43;5.47;;;;;;;;;;5057505;28;20453;-74
2021/07/01 00:35:34;;;;;;;8.97;5.40;;;;;;;;;;5057414;28;20513;-73
2021/07/01 00:38:01;;;;;;;7.90;4.90;;;;;;;;;;5057290;28;20461;-74
2021/07/01 00:40:30;;;;;;;8.07;5.73;;;;;;;;;;5057169;28;20497;-73
2021/07/01 00:42:57;;;;;;;14.03;5.60;;;;;;;;;;5056706;28;20469;-73
2021/07/01 00:45:25;;;;;;;6.00;4.93;;;;;;;;;;5057457;28;20445;-74
2021/07/01 00:47:53;;;;;;;7.63;5.00;;;;;;;;;;5057636;28;20469;-73
2021/07/01 00:50:21;;;;;;;7.10;5.00;;;;;;;;;;5057046;28;20453;-73
2021/07/01 00:52:50;;;;;;;6.13;4.90;;;;;;;;;;5057809;28;20685;-72
2021/07/01 00:55:18;;;;;;;8.20;4.77;;;;;;;;;;5056954;28;20519;-72
2021/07/01 00:57:46;;;;;;;8.93;5.53;;;;;;;;;;5057758;28;20485;-72
2021/07/01 01:00:41;;;;;;;6.40;5.07;;;;;;;;;;5056687;28;20554;-73
2021/07/01 01:03:09;;;;;;;6.10;5.23;;;;;;;;;;5056643;28;20472;-73
2021/07/01 01:05:37;;;;;;;7.53;4.50;;;;;;;;;;5057219;28;20646;-73
2021/07/01 01:08:08;;;;;;;6.67;3.77;;;;;;;;;;5057165;28;20504;-74
2021/07/01 01:10:37;;;;;;;7.73;4.13;;;;;;;;;;5056656;28;20854;-74
2021/07/01 01:13:06;;;;;;;8.13;5.47;;;;;;;;;;5056996;28;20468;-74
2021/07/01 01:15:34;;;;;;;6.47;4.27;;;;;;;;;;5056519;28;20463;-73
2021/07/01 01:18:01;;;;;;;5.03;3.80;;;26.40;99.90;;;;;;5056640;28;20939;-73
2021/07/01 01:20:29;;;;;;;5.07;4.10;;;;;;;;;;5056764;28;20497;-72
2021/07/01 01:22:59;;;;;;;5.87;3.87;;;26.20;99.90;;;;;;5056665;28;20799;-73
2021/07/01 01:25:27;;;;;;;4.97;3.90;;;26.20;99.90;;;;;;5057400;28;20504;-73
2021/07/01 01:27:56;;;;;;;6.10;3.90;;;;;;;;;;5056855;28;20460;-73
2021/07/01 01:30:24;;;;;;;4.47;3.47;;;;;;;;;;5056433;28;20445;-72
2021/07/01 01:32:52;;;;;;;5.70;3.87;;;;;;;;;;5056736;28;20468;-73
2021/07/01 01:35:20;;;;;;;7.20;4.80;;;;;;;;;;5055659;28;20450;-71
2021/07/01 01:37:48;;;;;;;5.57;3.80;;;;;;;;;;5055495;28;20461;-73
2021/07/01 01:40:17;;;;;;;5.10;3.80;;;26.30;99.90;;;;;;5055433;28;21182;-73
2021/07/01 01:42:45;;;;;;;6.10;3.20;;;26.30;99.90;;;;;;5056205;28;20457;-72
2021/07/01 01:45:13;;;;;;;4.50;3.13;;;26.10;99.90;;;;;;5056214;28;20460;-73
2021/07/01 01:47:47;;;;;;;4.70;3.50;;;26.10;99.90;;;;;;5056511;28;20458;-72
2021/07/01 01:50:17;;;;;;;7.40;3.73;;;;;;;;;;5055650;28;20489;-73
2021/07/01 01:52:45;;;;;;;5.00;3.90;;;26.20;99.90;;;;;;5056234;28;20468;-73
2021/07/01 01:55:13;;;;;;;4.87;3.43;;;26.20;99.90;;;;;;5055611;28;20453;-73
2021/07/01 01:57:44;;;;;;;5.60;3.80;;;;;;;;;;5055959;28;20483;-73
2021/07/01 02:00:13;;;;;;;5.93;3.77;;;;;;;;;;5056065;28;20489;-72
2021/07/01 02:02:41;;;;;;;4.43;3.10;;;;;;;;;;5056417;28;20457;-72
2021/07/01 02:05:11;;;;;;;5.20;3.27;;;26.40;99.90;;;;;;5055893;28;20468;-72
2021/07/01 02:07:39;;;;;;;4.80;3.63;;;26.20;99.90;;;;;;5056198;28;20526;-72
2021/07/01 02:10:12;;;;;;;6.87;3.20;;;26.20;99.90;;;;;;5056113;28;20449;-72
2021/07/01 02:12:40;;;;;;;5.37;3.73;;;;;;;;;;5056675;28;20498;-73
2021/07/01 02:15:11;;;;;;;5.00;3.50;;;;;;;;;;5056777;28;20512;-72
2021/07/01 02:17:39;;;;;;;7.10;3.67;;;26.30;99.90;;;;;;5056057;28;20534;-72
2021/07/01 02:20:09;;;;;;;8.87;5.80;;;26.20;99.90;;;;;;5055381;28;20588;-73
2021/07/01 02:22:37;;;;;;;4.70;3.13;;;26.30;99.90;;;;;;5055723;28;20468;-72
2021/07/01 02:25:07;;;;;;;5.47;3.47;;;26.40;99.90;;;;;;5056075;28;20870;-72
2021/07/01 02:27:35;;;;;;;4.80;3.60;;;26.30;99.90;;;;;;5055611;28;20919;-73
2021/07/01 02:30:04;;;;;;;4.70;3.00;;;26.40;99.90;;;;;;5055593;28;20460;-71
2021/07/01 02:32:33;;;;;;;6.40;3.83;;;26.20;99.90;;;;;;5055655;28;20515;-73
2021/07/01 02:35:01;;;;;;;5.10;3.80;;;26.30;99.90;;;;;;5056880;28;20456;-72
2021/07/01 02:37:29;;;;;;;10.67;5.33;;;;;;;;;;5056807;28;20461;-72
2021/07/01 02:39:57;;;;;;;7.73;4.10;;;;;;;;;;5055515;28;20811;-73
2021/07/01 02:42:25;;;;;;;6.80;4.10;;;26.20;99.90;;;;;;5055816;28;20751;-72
2021/07/01 02:44:52;;;;;;;5.97;3.80;;;26.40;99.90;;;;;;5056098;28;20454;-71
2021/07/01 02:47:20;;;;;;;5.00;4.20;;;26.20;99.90;;;;;;5056251;28;20461;-73
2021/07/01 02:49:51;;;;;;;6.90;4.30;;;26.30;99.90;;;;;;5055555;28;20535;-70
2021/07/01 02:52:19;;;;;;;6.70;4.63;;;26.20;99.90;;;;;;5054683;28;20862;-73
2021/07/01 02:54:47;;;;;;;7.03;4.50;;;26.20;99.90;;;;;;5055451;28;20450;-73
2021/07/01 02:57:14;;;;;;;7.90;6.07;;;26.10;99.90;;;;;;5055547;28;20531;-72
2021/07/01 02:59:44;;;;;;;7.07;4.70;;;26.20;99.90;;;;;;5055248;28;20500;-72
2021/07/01 03:02:13;;;;;;;9.80;5.10;;;26.30;99.90;;;;;;5055787;28;20468;-72
2021/07/01 03:04:40;;;;;;;7.30;5.40;;;26.20;99.90;;;;;;5054823;28;20486;-72
2021/07/01 03:07:09;;;;;;;8.60;5.70;;;26.20;99.90;;;;;;5056932;28;20469;-71
2021/07/01 03:09:40;;;;;;;9.27;6.77;;;26.20;99.90;;;;;;5058589;28;20457;-73
2021/07/01 03:12:09;;;;;;;11.40;6.40;;;26.30;99.90;;;;;;5058495;28;20698;-71
2021/07/01 03:14:36;;;;;;;10.90;5.27;;;26.20;99.90;;;;;;5058572;28;20523;-72
2021/07/01 03:17:04;;;;;;;8.00;4.60;;;26.20;99.90;;;;;;5059068;28;20792;-72
2021/07/01 03:19:33;;;;;;;9.00;5.70;;;26.20;99.90;;;;;;5059040;28;20968;-72
2021/07/01 03:22:04;;;;;;;10.60;5.90;;;26.20;99.90;;;;;;5059487;28;20468;-72
2021/07/01 03:24:33;;;;;;;8.80;6.37;;;26.20;99.90;;;;;;5059202;28;20536;-72
2021/07/01 03:27:01;;;;;;;10.50;6.37;;;26.10;99.90;;;;;;5058743;28;20491;-73
2021/07/01 03:29:29;;;;;;;9.00;6.47;;;26.10;99.90;;;;;;5059426;28;20445;-72
2021/07/01 03:31:57;;;;;;;10.23;5.97;;;26.10;99.90;;;;;;5059216;28;20526;-71
2021/07/01 03:34:24;;;;;;;7.77;6.10;;;26.00;99.90;;;;;;5059023;28;20445;-72
2021/07/01 03:36:52;;;;;;;12.23;6.97;;;26.00;99.90;;;;;;5058326;28;20472;-72
2021/07/01 03:39:20;;;;;;;9.67;6.47;;;26.00;99.90;;;;;;5058587;28;20461;-72
2021/07/01 03:41:49;;;;;;;8.03;5.37;;;25.80;99.90;;;;;;5058783;28;20530;-72
2021/07/01 03:44:17;;;;;;;14.50;5.97;;;25.90;99.90;;;;;;5058590;28;20542;-71
2021/07/01 03:46:45;;;;;;;8.20;5.80;;;25.80;99.90;;;;;;5058734;28;20469;-71
2021/07/01 03:49:14;;;;;;;9.43;6.17;;;25.80;99.90;;;;;;5057863;28;20450;-73
2021/07/01 03:51:42;;;;;;;12.70;7.30;;;25.80;99.90;;;;;;5058567;28;20757;-71
2021/07/01 03:54:10;;;;;;;9.90;6.53;;;25.80;99.90;;;;;;5057785;28;20450;-72
2021/07/01 03:56:42;;;;;;;9.20;5.77;;;25.70;99.90;;;;;;5057292;28;20520;-72
2021/07/01 03:59:12;;;;;;;9.23;6.27;;;25.70;99.90;;;;;;5058037;28;20487;-72
2021/07/01 04:01:40;;;;;;;8.47;6.40;;;25.70;99.90;;;;;;5058863;28;20497;-72
2021/07/01 04:04:08;;;;;;;9.93;6.30;;;25.70;99.90;;;;;;5058558;28;20698;-73
2021/07/01 04:06:36;;;;;;;7.47;5.17;;;25.60;99.90;;;;;;5059145;28;20474;-72
2021/07/01 04:09:06;;;;;;;8.57;6.07;;;25.60;99.90;;;;;;5057631;28;20466;-72
2021/07/01 04:11:34;;;;;;;9.07;5.50;;;;;;;;;;5058453;28;20625;-72
2021/07/01 04:14:02;;;;;;;12.43;5.83;;;25.50;99.90;;;;;;5058660;28;20463;-71
2021/07/01 04:16:32;;;;;;;8.20;5.67;;;25.50;99.90;;;;;;5057895;28;20717;-72
2021/07/01 04:19:00;;;;;;;11.37;6.00;;;25.40;99.90;;;;;;5055961;28;20458;-70
2021/07/01 04:21:28;;;;;;;9.73;6.13;;;25.50;99.90;;;;;;5057082;28;20498;-72
2021/07/01 04:23:56;;;;;;;8.40;6.00;;;25.40;99.90;;;;;;5057448;28;20450;-72
2021/07/01 04:26:24;;;;;;;9.20;6.37;;;25.50;99.90;;;;;;5057285;28;20556;-73
2021/07/01 04:28:52;;;;;;;8.63;6.20;;;;;;;;;;5057246;28;20457;-72
2021/07/01 04:31:24;;;;;;;8.97;5.13;;;25.30;99.90;;;;;;5057184;28;20510;-71
2021/07/01 04:33:57;;;;;;;9.90;5.67;;;25.20;99.90;;;;;;5064334;28;20532;-70
2021/07/01 04:36:28;;;;;;;8.63;5.83;;;25.10;99.90;;;;;;5064821;28;20827;-72
2021/07/01 04:39:00;;;;;;;6.80;4.33;;;24.90;99.90;;;;;;5057308;28;20465;-71
2021/07/01 04:41:30;;;;;;;8.57;5.40;;;24.90;99.90;;;;;;5056918;28;20841;-71
2021/07/01 04:44:00;;;;;;;14.17;8.40;;;24.90;99.90;;;;;;5056919;28;20484;-71
2021/07/01 04:46:32;;;;;;;13.10;5.97;;;24.90;99.90;;;;;;5039808;28;20742;-70
2021/07/01 04:49:09;;;;;;;7.20;5.03;;;25.00;99.90;;;;;;5056161;28;20598;-72
2021/07/01 04:51:45;;;;;;;7.07;5.00;;;25.10;99.90;;;;;;5057387;28;20485;-71
2021/07/01 04:54:15;;;;;;;7.90;5.23;;;25.10;99.90;;;;;;5056900;28;20429;-71
2021/07/01 04:56:46;;;;;;;7.90;5.13;;;24.80;99.90;;;;;;5056957;28;20458;-70
2021/07/01 04:59:17;;;;;;;12.00;4.93;;;24.80;99.90;;;;;;5057555;28;20453;-70
2021/07/01 05:01:45;;;;;;;7.13;4.53;;;24.90;99.90;;;;;;5060010;28;20501;-72
2021/07/01 05:04:19;;;;;;;6.50;4.83;;;24.80;99.90;;;;;;5057523;28;20453;-73
2021/07/01 05:06:47;;;;;;;5.20;4.33;;;24.70;99.90;;;;;;5043939;28;20480;-73
2021/07/01 05:09:15;;;;;;;5.77;4.90;;;24.70;99.90;;;;;;5065703;28;20457;-73
2021/07/01 05:11:42;;;;;;;8.37;5.97;;;24.70;99.90;;;;;;5067817;28;20459;-72
2021/07/01 05:14:11;;;;;;;7.80;5.60;;;24.70;99.90;;;;;;5075636;28;20479;-73
2021/07/01 05:16:43;;;;;;;8.97;6.27;;;25.30;99.90;;;;;;5075217;28;20472;-71
2021/07/01 05:19:11;;;;;;;9.37;5.80;;;26.00;99.90;;;;;;5075300;28;20529;-72
2021/07/01 05:21:41;;;;;;;6.17;4.37;;;25.70;99.90;;;;;;5075312;28;20809;-71
2021/07/01 05:24:11;;;;;;;7.23;5.17;;;24.90;99.90;;;;;;5075232;28;20547;-73
2021/07/01 05:26:39;;;;;;;7.03;5.00;;;24.30;99.90;;;;;;5076122;28;20521;-71
2021/07/01 05:29:07;;;;;;;9.90;6.10;;;24.40;99.90;;;;;;5063604;28;20522;-72
2021/07/01 05:31:35;;;;;;;10.50;6.20;;;24.70;99.90;;;;;;5055533;28;20515;-72
2021/07/01 05:34:04;;;;;;;8.70;6.07;;;26.50;99.90;;;;;;5055299;28;20480;-72
2021/07/01 05:36:32;;;;;;;9.57;7.70;;;26.80;99.90;;;;;;5054333;28;20465;-72
2021/07/01 05:39:01;;;;;;;9.70;6.50;;;26.70;99.90;;;;;;5055108;28;20463;-72
2021/07/01 05:41:29;;;;;;;9.93;8.20;;;26.50;99.90;;;;;;5054002;28;20496;-73
2021/07/01 05:43:58;;;;;;;9.10;6.73;;;26.10;99.90;;;;;;5054320;28;20865;-75
2021/07/01 05:46:26;;;;;;;8.80;5.90;;;25.80;99.90;;;;;;5059717;28;20563;-72
2021/07/01 05:48:55;;;;;;;10.53;7.30;;;25.60;99.90;;;;;;5053186;28;20445;-73
2021/07/01 05:51:26;;;;;;;11.93;7.87;;;25.80;99.90;;;;;;5036946;28;20461;-72
2021/07/01 05:54:00;;;;;;;9.00;6.80;;;25.90;99.90;;;;;;5053290;28;20939;-72
2021/07/01 05:56:36;;;;;;;9.40;6.97;;;25.90;99.90;;;;;;5053090;28;20580;-73
2021/07/01 05:59:06;;;;;;;10.20;6.63;;;26.10;99.90;;;;;;5053427;28;20503;-73
2021/07/01 06:01:36;;;;;;;8.73;5.83;;;26.10;99.90;;;;;;5053377;28;20943;-73
2021/07/01 06:04:08;;;;;;;11.23;6.80;;;26.00;99.90;;;;;;5052943;28;20448;-72
2021/07/01 06:06:40;;;;;;;9.83;6.77;;;26.20;99.90;;;;;;5053357;28;20977;-72
2021/07/01 06:09:12;;;;;;;10.63;6.30;;;26.40;99.90;;;;;;5068628;28;20779;-72
2021/07/01 06:11:43;;;;;;;7.23;5.47;;;26.50;99.90;;;;;;5074052;28;20869;-72
2021/07/01 06:14:13;;;;;;;8.13;5.90;;;26.50;99.90;;;;;;5073817;28;21022;-73
2021/07/01 06:16:42;;;;;;;7.77;6.40;;;26.60;99.90;;;;;;5073469;28;20545;-73
2021/07/01 06:19:13;;;;;;;10.40;6.20;;;;;;;;;;5073719;28;20449;-73
2021/07/01 06:21:40;;;;;;;10.33;6.40;;;;;;;;;;5073716;28;20548;-72
2021/07/01 06:24:10;;;;;;;7.53;5.20;;;;;;;;;;5074160;28;20456;-71
2021/07/01 06:26:38;;;;;;;9.40;5.93;;;;;;;;;;5074554;28;20456;-73
2021/07/01 06:29:13;;;;;;;8.83;6.00;;;;;;;;;;5073158;28;20449;-72
2021/07/01 06:31:43;;;;;;;8.50;5.67;;;;;;;;;;5055786;28;20538;-74
2021/07/01 06:34:17;;;;;;;8.50;4.77;;;;;;;;;;5056061;28;20449;-73
2021/07/01 06:36:45;;;;;;;7.93;6.40;;;;;;;;;;5065124;28;20469;-71
2021/07/01 06:39:14;;;;;;;6.27;4.73;;;;;;;;;;5054762;28;20552;-73
2021/07/01 06:41:45;;;;;;;8.50;5.10;;;;;;;;;;5055085;28;20531;-72
2021/07/01 06:44:17;;;;;;;6.00;3.60;;;;;;;;;;5058263;28;20460;-72
2021/07/01 06:46:45;;;;;;;5.80;4.37;;;;;;;;;;5057480;28;20476;-71
2021/07/01 06:49:14;;;;;;;5.43;3.77;;;;;;;;;;5058789;28;20464;-73
2021/07/01 06:51:45;;;;;;;7.83;4.17;;;;;;;;;;5058637;28;20452;-72
2021/07/01 06:54:17;;;;;;;7.30;3.70;;;;;;;;;;5059880;28;20464;-72
2021/07/01 06:56:48;;;;;;;6.63;4.40;;;;;;;;;;5072175;28;20505;-73
2021/07/01 06:59:40;;;;;;;7.33;3.60;;;;;;;;;;5074677;28;20908;-71
2021/07/01 07:02:14;;;;;;;6.83;4.03;;;;;;;;;;5054905;28;20940;-72
2021/07/01 07:04:42;;;;;;;4.60;3.23;;;;;;;;;;5058040;28;20453;-71
2021/07/01 07:07:11;;;;;;;5.23;3.30;;;;;;;;;;5062558;28;20739;-71
2021/07/01 07:09:43;;;;;;;6.40;3.27;;;;;;;;;;5057789;28;20543;-71
2021/07/01 07:12:14;;;;;;;5.53;3.70;;;;;;;;;;5059081;28;20849;-70
2021/07/01 07:14:42;;;;;;;3.40;3.00;;;;;;;;;;5058991;28;20725;-73
2021/07/01 07:17:34;;;;;;;4.87;3.17;;;;;;;;;;5058306;28;20461;-72
2021/07/01 07:20:02;;;;;;;4.67;3.00;;;;;;;;;;5057023;28;20711;-72
2021/07/01 07:22:37;;;;;;;4.67;3.00;;;;;;;;;;5057460;28;20507;-72
2021/07/01 07:25:06;;;;;;;4.40;2.70;;;;;;;;;;5058288;28;20445;-73
2021/07/01 07:27:38;;;;;;;5.17;2.90;;;;;;;;;;5058842;28;20453;-72
2021/07/01 07:30:14;;;;;;;3.60;2.63;;;;;;;;;;5059090;28;21085;-73
2021/07/01 07:32:52;;;;;;;3.60;2.30;;;;;;;;;;5057873;28;20445;-73
2021/07/01 07:35:45;;;;;;;4.00;2.80;;;;;;;;;;5056758;28;20464;-71
2021/07/01 07:38:13;;;;;;;4.17;2.37;;;;;;;;;;5057533;28;20616;-71
2021/07/01 07:40:41;;;;;;;5.50;3.10;;;;;;;;;;5055712;28;20458;-72
2021/07/01 07:45:59;;;;;;;4.47;3.13;;;;;;;;;;5067844;28;20457;-71
2021/07/01 07:48:37;;;;;;;4.70;2.83;;;;;;;;;;5068262;28;20445;-71
2021/07/01 07:51:06;;;;;;;5.40;3.50;;;;;;;;;;5055371;28;20866;-71
2021/07/01 07:53:35;;;;;;;4.40;2.63;;;;;;;;;;5063613;28;20444;-72
2021/07/01 07:56:03;;;;;;;4.37;2.93;;;;;;;;;;5059426;28;20461;-72
2021/07/01 07:58:33;;;;;;;4.73;3.23;;;;;;;;;;5057117;28;20453;-71
2021/07/01 08:01:03;;;;;;;4.67;3.00;;;;;;;;;;5061861;28;20482;-72
2021/07/01 08:03:35;;;;;;;3.60;2.80;;;;;;;;;;5050709;28;20434;-72
2021/07/01 08:06:05;;;;;;;4.83;3.37;;;;;;;;;;5046497;28;20803;-73
2021/07/01 08:08:38;;;;;;;4.20;2.67;;;;;;;;;;5064582;28;20445;-72
2021/07/01 08:11:08;;;;;;;5.10;3.30;;;;;;;;;;5059766;28;20445;-72
2021/07/01 08:13:37;;;;;;;4.53;3.60;;;;;;;;;;5063473;28;20519;-72
2021/07/01 08:16:06;;;;;;;4.13;2.80;;;;;;;;;;5056827;28;20486;-72
2021/07/01 08:18:38;;;;;;;3.67;2.43;;;;;;;;;;5071493;28;21157;-70
2021/07/01 08:21:14;;;;;;;5.20;3.00;;;;;;;;;;5073113;28;20492;-72
2021/07/01 08:23:54;;;;;;;4.83;3.10;;;;;;;;;;5056307;28;20579;-70
2021/07/01 08:26:26;;;;;;;4.20;2.20;;;;;;;;;;5058022;28;20449;-71
2021/07/01 08:28:57;;;;;;;4.77;3.80;;;;;;;;;;5057171;28;20456;-73
2021/07/01 08:31:31;;;;;;;7.63;3.00;;;;;;;;;;5068696;28;20506;-72
2021/07/01 08:34:06;;;;;;;3.30;2.83;;;;;;;;;;5049496;28;20444;-71
2021/07/01 08:36:36;;;;;;;3.20;2.13;;;;;;;;;;5054565;28;20461;-70
2021/07/01 08:39:09;;;;;;;3.20;2.37;;;;;;;;;;5054599;28;20544;-71
2021/07/01 08:41:38;;;;;;;3.13;2.20;;;;;;;;;;5056577;28;20531;-71
2021/07/01 08:44:08;;;;;;;3.33;2.40;;;;;;;;;;5075419;28;20532;-70
2021/07/01 08:46:47;;;;;;;3.03;2.23;;;;;;;;;;5055231;28;20457;-70
2021/07/01 08:49:25;;;;;;;3.40;2.10;;;;;;;;;;5055465;28;20471;-69
2021/07/01 08:51:55;;;;;;;3.20;1.80;;;;;;;;;;5057908;28;20445;-72
2021/07/01 08:54:32;;;;;;;3.80;2.90;;;;;;;;;;5070868;28;20444;-70
2021/07/01 08:57:15;;;;;;;3.47;2.70;;;;;;;;;;5067136;28;20864;-70
2021/07/01 08:59:44;;;;;;;4.50;2.70;;;;;;;;;;5075287;28;20448;-72
2021/07/01 09:02:12;;;;;;;4.50;2.57;;;;;;;;;;5072747;28;20924;-70
2021/07/01 09:04:51;;;;;;;4.27;2.80;;;;;;;;;;5071675;28;20842;-74
2021/07/01 09:07:23;;;;;;;4.20;2.93;;;;;;;;;;5062917;28;20452;-73
2021/07/01 09:09:56;;;;;;;3.50;2.60;;;;;;;;;;5066930;28;20900;-72
2021/07/01 09:12:26;;;;;;;3.77;3.00;;;;;;;;;;5067112;28;20816;-73
2021/07/01 09:15:08;;;;;;;3.90;2.30;;;;;;;;;;5061670;28;20525;-71
2021/07/01 09:17:47;;;;;;;4.00;2.53;;;;;;;;;;5065990;28;20450;-71
2021/07/01 09:20:21;;;;;;;4.47;2.57;;;;;;;;;;5068020;28;20567;-70
2021/07/01 09:22:51;;;;;;;5.40;3.13;;;;;;;;;;5062006;28;20530;-72
2021/07/01 09:25:21;;;;;;;5.13;2.33;;;;;;;;;;5069308;28;20462;-71
2021/07/01 09:27:53;;;;;;;3.53;2.47;;;;;;;;;;5065657;28;20468;-71
2021/07/01 09:30:25;;;;;;;5.57;2.90;;;;;;;;;;5052908;28;20790;-72
2021/07/01 09:32:56;;;;;;;3.83;2.50;;;;;;;;;;5051989;28;20449;-71
2021/07/01 09:35:26;;;;;;;2.80;1.80;;;;;;;;;;5051959;28;20462;-71
2021/07/01 09:37:54;;;;;;;5.30;2.83;;;;;;;;;;5052854;28;20861;-70
2021/07/01 09:40:23;;;;;;;3.47;2.60;;;;;;;;;;5052597;28;20865;-71
2021/07/01 09:42:53;;;;;;;5.20;3.13;;;;;;;;;;5071444;28;20520;-72
2021/07/01 09:45:25;;;;;;;5.57;3.63;;;;;;;;;;5073098;28;20464;-70
2021/07/01 09:47:54;;;;;;;4.37;3.50;;;;;;;;;;5058727;28;20508;-71
2021/07/01 09:50:25;;;;;;;5.20;3.83;;;;;;;;;;5052994;28;20460;-71
2021/07/01 09:52:58;;;;;;;6.33;4.00;;;;;;;;;;5067662;28;20834;-71
2021/07/01 09:55:39;;;;;;;5.77;4.07;;;;;;;;;;5072836;28;20461;-70
2021/07/01 09:58:13;;;;;;;3.90;3.40;;;;;;;;;;5066374;28;20940;-72
2021/07/01 10:00:56;;;;;;;5.07;3.43;;;;;;;;;;5061964;28;20457;-72
2021/07/01 10:03:32;;;;;;;4.00;3.23;;;;;;;;;;5060728;28;20489;-73
2021/07/01 10:06:16;;;;;;;5.47;4.33;;;;;;;;;;5063055;28;20460;-71
2021/07/01 10:08:47;;;;;;;6.17;4.10;;;;;;;;;;5073463;28;20444;-71
2021/07/01 10:14:15;;;;;;;5.90;5.17;;;;;;;;;;5065074;28;20453;-71
2021/07/01 10:16:46;;;;;;;5.27;4.30;;;;;;;;;;5062016;28;20468;-72
2021/07/01 10:19:22;;;;;;;6.33;4.60;;;;;;;;;;5055934;28;20764;-71
2021/07/01 10:22:04;;;;;;;7.47;4.20;;;;;;;;;;5067311;28;20573;-71
2021/07/01 10:24:51;;;;;;;5.13;3.93;;;;;;;;;;5068902;28;20994;-71
2021/07/01 10:27:33;;;;;;;5.77;4.87;;;;;;;;;;5064948;28;20800;-71
2021/07/01 10:30:17;;;;;;;5.07;4.17;;;;;;;;;;5058022;28;20522;-72
2021/07/01 10:32:46;;;;;;;6.03;5.20;;;;;;;;;;5058922;28;20539;-72
2021/07/01 10:35:22;;;;;;;5.40;4.60;;;;;;;;;;5057216;28;20922;-72
2021/07/01 10:38:11;;;;;;;5.73;5.00;;;;;;;;;;5069621;28;20510;-72
2021/07/01 10:40:40;;;;;;;8.70;5.77;;;;;;;;;;5046778;28;20464;-72
2021/07/01 10:43:15;;;;;;;6.13;4.97;;;;;;;;;;5056883;28;20586;-73
2021/07/01 10:45:55;;;;;;;7.43;5.67;;;;;;;;;;5063978;28;20456;-71
2021/07/01 10:48:23;;;;;;;13.50;10.27;;;;;;;;;;5056901;28;20513;-71
2021/07/01 10:50:56;;;;;;;7.30;5.73;;;;;;;;;;5057322;28;20749;-71
2021/07/01 10:53:32;;;;;;;8.00;5.80;;;;;;;;;;5054583;28;20454;-71
2021/07/01 10:56:03;;;;;;;7.50;6.50;;;;;;;;;;5061344;28;20460;-72
2021/07/01 10:58:33;;;;;;;6.70;5.80;;;;;;;;;;5060719;28;20461;-72
2021/07/01 11:01:03;;;;;;;8.57;6.80;;;;;;;;;;5053843;28;20773;-72
2021/07/01 11:03:31;;;;;;;7.80;6.10;;;;;;;;;;5053374;28;20488;-72
2021/07/01 11:06:01;;;;;;;7.83;6.60;;;;;;;;;;5052190;28;20523;-71
2021/07/01 11:08:30;;;;;;;11.30;7.47;;;;;;;;;;5052513;28;20461;-70
2021/07/01 11:10:59;;;;;;;8.37;6.63;;;;;;;;;;5054149;28;20465;-71
2021/07/01 11:13:28;;;;;;;11.70;8.50;;;;;;;;;;5053334;28;20944;-72
2021/07/01 11:16:05;;;;;;;9.20;8.10;;;;;;;;;;5052463;28;20757;-72
2021/07/01 11:18:36;;;;;;;8.80;7.70;;;;;;;;;;5055379;28;20893;-73
2021/07/01 11:21:08;;;;;;;9.90;8.90;;;;;;;;;;5054002;28;20457;-72
2021/07/01 11:23:36;;;;;;;8.83;7.93;;;;;;;;;;5053224;28;20504;-72
2021/07/01 11:26:06;;;;;;;9.60;8.60;;;;;;;;;;5053389;28;20456;-72
2021/07/01 11:28:41;;;;;;;9.00;7.97;;;;;;;;;;5056802;28;20536;-71
2021/07/01 11:31:12;;;;;;;7.13;6.43;;;;;;;;;;5076168;28;20642;-72
2021/07/01 11:33:49;;;;;;;9.00;8.07;;;;;;;;;;5067328;28;20454;-72
2021/07/01 11:36:18;;;;;;;9.10;7.10;;;;;;;;;;5054297;28;20559;-72
2021/07/01 11:38:49;;;;;;;10.67;8.00;;;;;;;;;;5061461;28;20757;-73
2021/07/01 11:41:17;;;;;;;7.70;6.63;;;;;;;;;;5061327;28;20457;-71
2021/07/01 11:43:55;;;;;;;9.37;7.30;;;;;;;;;;5056564;28;20515;-72
2021/07/01 11:46:25;;;;;;;7.73;6.90;;;;;;;;;;5058401;28;20453;-72
2021/07/01 11:48:55;;;;;;;8.30;7.50;;;;;;;;;;5058637;28;20454;-71
2021/07/01 11:51:24;;;;;;;8.63;7.80;;;;;;;;;;5067198;28;20747;-71
2021/07/01 11:53:57;;;;;;;10.00;9.00;;;;;;;;;;5057771;28;21080;-72
2021/07/01 11:56:26;;;;;;;10.73;8.20;;;;;;;;;;5056049;28;20462;-72
2021/07/01 11:58:54;;;;;;;11.80;10.33;;;;;;;;;;5055318;28;20896;-72
2021/07/01 12:01:22;;;;;;;9.77;7.67;;;;;;;;;;5065385;28;20469;-72
2021/07/01 12:04:11;;;;;;;;;;;;;;;;;;;;;
2021/07/01 12:06:49;;;;;;;12.77;9.80;;;;;;;;;;5052453;28;20915;-71
2021/07/01 12:09:40;;;;;;;10.40;8.27;;;;;;;;;;5057939;28;20448;-71
2021/07/01 12:12:17;;;;;;;9.97;8.70;;;;;;;;;;5054433;28;20543;-72
2021/07/01 12:14:51;;;;;;;15.03;9.70;;;;;;;;;;5060071;28;20457;-72
2021/07/01 12:17:38;;;;;;;11.33;9.13;;;;;;;;;;5057220;28;20523;-72
2021/07/01 12:20:12;;;;;;;11.40;7.93;;;;;;;;;;5054601;28;20525;-71
2021/07/01 12:22:53;;;;;;;9.93;8.20;;;;;;;;;;5059021;28;20481;-72
2021/07/01 12:31:29;;;;;;;10.77;7.20;;;;;;;;;;5059211;28;20458;-71
2021/07/01 12:33:58;;;;;;;9.53;7.90;;;;;;;;;;5065596;28;20475;-73
2021/07/01 12:36:37;;;;;;;9.80;8.20;;;;;;;;;;5068431;28;20468;-70
2021/07/01 12:48:16;;;;;;;8.07;6.93;;;;;;;;;;5069846;28;20464;-72
2021/07/01 12:51:03;;;;;;;10.20;7.27;;;;;;;;;;5058386;28;20454;-73
2021/07/01 12:53:43;;;;;;;9.50;7.97;;;;;;;;;;5059615;28;20467;-73
2021/07/01 12:56:26;;;;;;;7.47;6.67;;;;;;;;;;5069796;28;21134;-72
2021/07/01 12:58:54;;;;;;;8.83;6.90;;;;;;;;;;5062438;28;20528;-71
2021/07/01 13:01:22;;;;;;;9.77;8.63;;;;;;;;;;5073537;28;20464;-72
2021/07/01 13:03:58;;;;;;;8.50;7.60;;;;;;;;;;5056585;28;20856;-72
2021/07/01 13:06:34;;;;;;;8.60;7.80;;;;;;;;;;5061348;28;20473;-72
2021/07/01 13:09:03;;;;;;;7.80;6.50;;;;;;;;;;5062152;28;20491;-71
2021/07/01 13:11:46;;;;;;;8.83;7.50;;;;;;;;;;5073852;28;20452;-72
2021/07/01 13:14:24;;;;;;;8.80;7.90;;;;;;;;;;5065256;28;21070;-72
2021/07/01 13:17:04;;;;;;;7.87;7.07;;;;;;;;;;5069645;28;20479;-72
2021/07/01 13:19:36;;;;;;;8.07;7.27;;;;;;;;;;5053373;28;20442;-72
2021/07/01 13:22:23;;;;;;;8.27;7.40;;;;;;;;;;5058517;28;20460;-73
2021/07/01 13:25:14;;;;;;;8.47;7.60;;;;;;;;;;5055957;28;20441;-73
2021/07/01 13:27:58;;;;;;;8.00;7.20;;;;;;;;;;5062459;28;20457;-73
2021/07/01 13:30:34;;;;;;;8.07;7.07;;;;;;;;;;5054928;28;20909;-73
2021/07/01 13:33:15;;;;;;;8.83;7.53;;;;;;;;;;5056052;28;20448;-70
2021/07/01 13:35:52;;;;;;;8.20;7.30;;;;;;;;;;5053703;28;20450;-73
2021/07/01 13:38:25;;;;;;;9.40;7.73;;;;;;;;;;5065873;28;20894;-72
2021/07/01 13:40:59;;;;;;;9.40;7.43;;;;;;;;;;5065740;28;20989;-72
2021/07/01 13:43:32;;;;;;;8.53;6.50;;;;;;;;;;5055884;28;21168;-73
2021/07/01 13:46:08;;;;;;;7.57;6.77;;;;;;;;;;5050674;28;20458;-73
2021/07/01 13:48:43;;;;;;;8.40;7.50;;;;;;;;;;5058469;28;20457;-73
2021/07/01 13:51:15;;;;;;;9.13;7.70;;;;;;;;;;5073072;28;20436;-71
2021/07/01 13:53:45;;;;;;;10.90;8.20;;;;;;;;;;5071437;28;20449;-71
2021/07/01 13:56:17;;;;;;;8.23;7.43;;;;;;;;;;5067102;28;20537;-72
2021/07/01 13:58:46;;;;;;;8.87;7.97;;;;;;;;;;5062328;28;20460;-72
2021/07/01 14:01:15;;;;;;;9.10;8.17;;;;;;;;;;5054737;28;20475;-73
2021/07/01 14:03:48;;;;;;;9.13;8.20;;;;;;;;;;5065883;28;20485;-71
2021/07/01 14:06:17;;;;;;;13.53;11.60;;;;;;;;;;5055156;28;20480;-73
2021/07/01 14:08:47;;;;;;;17.40;12.63;;;;;;;;;;5071670;28;20448;-73
2021/07/01 14:11:17;;;;;;;9.33;8.43;;;;;;;;;;5057508;28;21001;-73
2021/07/01 14:13:46;;;;;;;9.70;8.80;;;;;;;;;;5057747;28;20519;-73
2021/07/01 14:16:15;;;;;;;9.80;8.10;;;;;;;;;;5054643;28;20809;-73
2021/07/01 14:19:00;;;;;;;8.60;7.70;;;;;;;;;;5059897;28;20457;-71
2021/07/01 14:21:37;;;;;;;7.70;6.77;;;;;;;;;;5052998;28;20472;-73
2021/07/01 14:24:12;;;;;;;7.00;6.30;;;;;;;;;;5051229;28;20755;-74
2021/07/01 14:26:46;;;;;;;7.30;6.60;;;;;;;;;;5053719;28;20559;-72
2021/07/01 14:29:16;;;;;;;8.67;6.47;;;;;;;;;;5055437;28;20470;-72
2021/07/01 14:31:48;;;;;;;6.97;5.50;;;;;;;;;;5062269;28;20460;-73
2021/07/01 14:34:15;;;;;;;5.97;5.37;;;;;;;;;;5058067;28;20751;-73
2021/07/01 14:36:47;;;;;;;6.27;5.67;;;;;;;;;;5061346;28;20492;-73
2021/07/01 14:39:25;;;;;;;7.03;5.57;;;;;;;;;;5052184;28;20887;-73
2021/07/01 14:42:03;;;;;;;8.03;6.93;;;;;;;;;;5054936;28;20457;-72
2021/07/01 14:44:45;;;;;;;7.67;6.57;;;;;;;;;;5058194;28;20526;-72
2021/07/01 14:47:20;;;;;;;7.13;6.43;;;;;;;;;;5056840;28;20476;-72
2021/07/01 14:50:07;;;;;;;6.80;6.03;;;;;;;;;;5064827;28;20904;-71